Latest Coastal Weather Observations for Kurnell

IDN60701

Issued at 2:31 pm EST Friday 23 August 2019 (issued every 10 minutes, with the page automatically refreshed every 10 minutes)

About coastal observations | Map of coastal stations | Coastal observations for NSW | Marine services | Other Formats
Station Details ID: 066043 Name: KURNELL AWS Lat: -34.00 Lon: 151.21 Height: 4.0 m
Data from the previous 72 hours. | See also: Recent months at Kurnell
Date/Time
EST
Wind Sea
Height
m
Swell Vis
km
Cloud Weather Temp
°C
Press
hPa
Rain since
9am
mm
Dir  Spd
kts
Gust
kts
Height
m
Period
s
Dir
23/02:30pm ENE 6 9 - - - - - - - - - -
23/02:00pm SW 3 4 - - - - - - - - - -
23/01:30pm CALM 0 0 - - - - - - - - - -
23/01:00pm NNW 4 5 - - - - - - - - - -
23/12:30pm NNW 6 7 - - - - - - - - - -
23/12:00pm NW 7 9 - - - - - - - - - -
23/11:30am WNW 9 11 - - - - - - - - - -
23/11:00am WNW 8 10 - - - - - - - - - -
23/10:30am W 9 12 - - - - - - - - - -
23/10:00am W 12 15 - - - - - - - - - -
23/09:30am W 12 15 - - - - - - - - - -
23/09:00am W 11 14 - - - - - - - - - -
23/08:30am W 11 14 - - - - - - - - - -
23/08:00am W 13 15 - - - - - - - - - -
23/07:30am W 10 12 - - - - - - - - - -
23/07:00am W 9 12 - - - - - - - - - -
23/06:30am W 10 12 - - - - - - - - - -
23/06:00am W 10 12 - - - - - - - - - -
23/05:30am W 12 14 - - - - - - - - - -
23/05:00am W 13 15 - - - - - - - - - -
23/04:30am W 13 15 - - - - - - - - - -
23/04:00am W 10 12 - - - - - - - - - -
23/03:32am SSW 16 26 - - - - - - - - - -
23/03:30am SSW 17 23 - - - - - - - - - -
23/03:00am SSW 17 21 - - - - - - - - - -
23/02:43am SSW 17 27 - - - - - - - - - -
23/02:30am SSW 16 22 - - - - - - - - - -
23/02:00am SSW 18 26 - - - - - - - - - -
23/01:30am SW 15 22 - - - - - - - - - -
23/01:00am SSW 17 22 - - - - - - - - - -
23/12:30am SSW 20 26 - - - - - - - - - -
23/12:00am SSW 20 26 - - - - - - - - - -
 
Date/Time
EST
Wind Sea
Height
m
Swell Vis
km
Cloud Weather Temp
°C
Press
hPa
Rain since
9am
mm
Dir  Spd
kts
Gust
kts
Height
m
Period
s
Dir
22/11:41pm SSW 18 28 - - - - - - - - - -
22/11:30pm SSW 19 26 - - - - - - - - - -
22/11:00pm SSW 19 27 - - - - - - - - - -
22/10:30pm S 19 27 - - - - - - - - - -
22/10:08pm SSW 19 29 - - - - - - - - - -
22/10:00pm SSW 20 29 - - - - - - - - - -
22/09:33pm SSW 19 29 - - - - - - - - - -
22/09:30pm SSW 20 29 - - - - - - - - - -
22/09:17pm SSW 20 30 - - - - - - - - - -
22/09:00pm SSW 22 30 - - - - - - - - - -
22/08:31pm SSW 21 31 - - - - - - - - - -
22/08:30pm SSW 22 31 - - - - - - - - - -
22/08:05pm SSW 22 32 - - - - - - - - - -
22/08:00pm SSW 22 31 - - - - - - - - - -
22/07:30pm S 23 32 - - - - - - - - - -
22/07:00pm SSW 25 36 - - - - - - - - - -
22/06:33pm S 23 33 - - - - - - - - - -
22/06:30pm SSW 24 33 - - - - - - - - - -
22/06:00pm S 25 37 - - - - - - - - - -
22/05:30pm S 25 38 - - - - - - - - - -
22/05:24pm S 24 34 - - - - - - - - - -
22/05:00pm S 23 32 - - - - - - - - - -
22/04:35pm S 25 38 - - - - - - - - - -
22/04:30pm SSW 23 32 - - - - - - - - - -
22/04:00pm S 28 38 - - - - - - - - - -
22/03:34pm S 28 38 - - - - - - - - - -
22/03:30pm S 29 37 - - - - - - - - - -
22/03:00pm SSW 27 38 - - - - - - - - - -
22/02:36pm S 23 33 - - - - - - - - - -
22/02:30pm SSW 25 34 - - - - - - - - - -
22/02:00pm S 26 37 - - - - - - - - - -
22/01:30pm S 25 40 - - - - - - - - - -
22/01:00pm SSW 26 36 - - - - - - - - - -
22/12:38pm SSW 23 36 - - - - - - - - - -
22/12:30pm SSW 22 29 - - - - - - - - - -
22/12:05pm S 22 32 - - - - - - - - - -
22/12:00pm S 24 32 - - - - - - - - - -
22/11:34am S 20 30 - - - - - - - - - -
22/11:30am S 21 30 - - - - - - - - - -
22/11:04am SSW 20 30 - - - - - - - - - -
22/11:00am SSW 18 24 - - - - - - - - - -
22/10:30am WSW 19 26 - - - - - - - - - -
22/10:02am WSW 21 31 - - - - - - - - - -
22/10:00am W 21 27 - - - - - - - - - -
22/09:45am W 24 35 - - - - - - - - - -
22/09:30am W 22 30 - - - - - - - - - -
22/09:00am W 18 22 - - - - - - - - - -
22/08:30am W 25 36 - - - - - - - - - -
22/08:27am W 26 36 - - - - - - - - - -
22/08:00am W 24 30 - - - - - - - - - -
22/07:30am W 24 32 - - - - - - - - - -
22/07:00am W 21 28 - - - - - - - - - -
22/06:46am W 20 30 - - - - - - - - - -
22/06:30am WNW 20 25 - - - - - - - - - -
22/06:18am W 14 20 - - - - - - - - - -
22/06:00am WSW 9 10 - - - - - - - - - -
22/05:30am WSW 7 9 - - - - - - - - - -
22/05:00am W 13 16 - - - - - - - - - -
22/04:30am WSW 15 19 - - - - - - - - - -
22/04:00am W 17 23 - - - - - - - - - -
22/03:30am W 14 18 - - - - - - - - - -
22/03:00am WNW 10 13 - - - - - - - - - -
22/02:30am NNW 9 15 - - - - - - - - - -
22/02:00am WNW 15 21 - - - - - - - - - -
22/01:30am W 16 20 - - - - - - - - - -
22/01:00am WNW 17 21 - - - - - - - - - -
22/12:30am WNW 15 20 - - - - - - - - - -
22/12:00am WNW 24 32 - - - - - - - - - -
 
Date/Time
EST
Wind Sea
Height
m
Swell Vis
km
Cloud Weather Temp
°C
Press
hPa
Rain since
9am
mm
Dir  Spd
kts
Gust
kts
Height
m
Period
s
Dir
21/11:55pm W 18 30 - - - - - - - - - -
21/11:30pm WNW 20 27 - - - - - - - - - -
21/11:00pm WNW 18 23 - - - - - - - - - -
21/10:30pm WNW 17 21 - - - - - - - - - -
21/10:00pm WNW 18 22 - - - - - - - - - -
21/09:30pm WNW 18 22 - - - - - - - - - -
21/09:00pm W 19 26 - - - - - - - - - -
21/08:30pm W 16 20 - - - - - - - - - -
21/08:00pm W 20 28 - - - - - - - - - -
21/07:30pm W 22 32 - - - - - - - - - -
21/07:29pm W 22 32 - - - - - - - - - -
21/07:00pm W 25 31 - - - - - - - - - -
21/06:36pm W 24 34 - - - - - - - - - -
21/06:30pm W 26 34 - - - - - - - - - -
21/06:00pm W 26 33 - - - - - - - - - -
21/05:30pm W 25 31 - - - - - - - - - -
21/05:00pm W 25 34 - - - - - - - - - -
21/04:30pm W 27 33 - - - - - - - - - -
21/04:00pm W 24 37 - - - - - - - - - -
21/03:36pm W 23 33 - - - - - - - - - -
21/03:30pm W 24 33 - - - - - - - - - -
21/03:09pm W 18 28 - - - - - - - - - -
21/03:00pm W 23 29 - - - - - - - - - -
21/02:31pm W 21 31 - - - - - - - - - -
21/02:30pm W 21 29 - - - - - - - - - -
21/02:00pm W 25 30 - - - - - - - - - -
21/01:30pm W 23 31 - - - - - - - - - -
21/01:00pm WSW 22 29 - - - - - - - - - -
21/12:47pm W 19 29 - - - - - - - - - -
21/12:30pm W 19 26 - - - - - - - - - -
21/12:13pm WSW 18 29 - - - - - - - - - -
21/12:00pm W 16 21 - - - - - - - - - -
21/11:30am NW 10 13 - - - - - - - - - -
21/11:00am NW 9 11 - - - - - - - - - -
21/10:30am NW 9 13 - - - - - - - - - -
21/10:00am NW 11 14 - - - - - - - - - -
21/09:30am NW 12 14 - - - - - - - - - -
21/09:00am W 12 16 - - - - - - - - - -
21/08:30am WNW 19 22 - - - - - - - - - -
21/08:08am WNW 17 27 - - - - - - - - - -
21/08:00am WNW 17 20 - - - - - - - - - -
21/07:30am WNW 17 21 - - - - - - - - - -
21/07:00am WNW 20 23 - - - - - - - - - -
21/06:30am W 15 21 - - - - - - - - - -
21/06:00am WNW 11 14 - - - - - - - - - -
21/05:30am NW 11 13 - - - - - - - - - -
21/05:00am NW 7 11 - - - - - - - - - -
21/04:30am N 7 8 - - - - - - - - - -
21/04:00am N 7 8 - - - - - - - - - -
21/03:30am NNW 7 9 - - - - - - - - - -
21/03:00am N 8 9 - - - - - - - - - -
21/02:30am NW 8 11 - - - - - - - - - -
21/02:00am NW 9 11 - - - - - - - - - -
21/01:30am NW 8 9 - - - - - - - - - -
21/01:00am NW 9 10 - - - - - - - - - -
21/12:30am WNW 9 12 - - - - - - - - - -
21/12:00am WNW 13 15 - - - - - - - - - -
 
Date/Time
EST
Wind Sea
Height
m
Swell Vis
km
Cloud Weather Temp
°C
Press
hPa
Rain since
9am
mm
Dir  Spd
kts
Gust
kts
Height
m
Period
s
Dir
20/11:30pm WNW 16 22 - - - - - - - - - -
20/11:00pm W 16 21 - - - - - - - - - -
20/10:30pm WNW 20 26 - - - - - - - - - -
20/10:00pm W 18 22 - - - - - - - - - -
20/09:30pm WNW 17 21 - - - - - - - - - -
20/09:00pm WNW 18 21 - - - - - - - - - -
20/08:30pm WNW 17 21 - - - - - - - - - -
20/08:00pm WNW 22 27 - - - - - - - - - -
20/07:30pm WNW 21 27 - - - - - - - - - -
20/07:00pm WNW 21 26 - - - - - - - - - -
20/06:30pm W 18 24 - - - - - - - - - -
20/06:00pm WNW 21 27 - - - - - - - - - -
20/05:30pm W 20 24 - - - - - - - - - -
20/05:00pm W 18 22 - - - - - - - - - -
20/04:30pm WNW 21 26 - - - - - - - - - -
20/04:00pm WNW 22 27 - - - - - - - - - -
20/03:54pm WNW 20 27 - - - - - - - - - -
20/03:30pm W 19 25 - - - - - - - - - -
20/03:00pm W 19 24 - - - - - - - - - -

Other formats

Comma delimited format used in spreadsheet applications
http://www.bom.gov.au/fwo/IDN60701/IDN60701.95756.axf

JavaScript Object Notation format (JSON) in row-major order
http://www.bom.gov.au/fwo/IDN60701/IDN60701.95756.json

Data quality

Most of these data are generated automatically and are frequently updated. Quality checks on data are not normally performed. It is possible for incorrect values to appear. Refer to information at About Latest Weather Observations and please check the disclaimer before using these data.